Overview Statistics Trail Chart Weather Telemetry Raw packets
 

This is the latest recevied weather packets stored in our database for station/object WW5JC. If no packets are shown the sender has not sent any weather packets the latest 10 day(s).

<< 93 94 95 96 97 98 99 >>
Time Temp. Humidity Pressure Rain* Wind** Luminosity Snow
1787934133 33.89° C 54% 1020.9 hPa 0 mm - 536 W/m² -
1787933831 33.33° C 55% 1020.8 hPa 0 mm - 527 W/m² -
1787933527 32.78° C 55% 1020.8 hPa 0 mm - 515 W/m² -
1787933221 33.33° C 54% 1020.9 hPa 0 mm - 508 W/m² -
1787932916 32.78° C 57% 1020.9 hPa 0 mm - 494 W/m² -
1787932615 33.33° C 55% 1020.8 hPa 0 mm - 487 W/m² -
1787932315 32.78° C 57% 1020.8 hPa 0 mm - 472 W/m² -
1787932009 32.22° C 59% 1020.9 hPa 0 mm - 463 W/m² -
1787931709 32.22° C 61% 1020.9 hPa 0 mm - 450 W/m² -
1787931403 32.78° C 60% 1020.7 hPa 0 mm - 436 W/m² -
1787931098 31.67° C 63% 1020.8 hPa 0 mm - 420 W/m² -
1787930797 31.67° C 64% 1020.8 hPa 0 mm - 411 W/m² -
1787930492 32.22° C 64% 1020.8 hPa 0 mm - 399 W/m² -
1787930187 31.67° C 63% 1020.8 hPa 0 mm - 387 W/m² -
1787929886 31.67° C 63% 1020.7 hPa 0 mm - 376 W/m² -
1787929581 31.67° C 65% 1020.6 hPa 0 mm - 359 W/m² -
1787929280 31.11° C 66% 1020.7 hPa 0 mm - 345 W/m² -
1787928978 31.11° C 66% 1020.5 hPa 0 mm - 330 W/m² -
1787928674 31.11° C 67% 1020.5 hPa 0 mm - 316 W/m² -
1787928372 31.11° C 67% 1020.3 hPa 0 mm - 306 W/m² -
1787928071 30.56° C 68% 1020.5 hPa 0 mm - 294 W/m² -
1787927770 31.11° C 67% 1020.3 hPa 0 mm - 279 W/m² -
1787927465 30.56° C 68% 1020.4 hPa 0 mm - 265 W/m² -
1787927160 31.11° C 67% 1020.3 hPa 0 mm - 253 W/m² -
1787926860 30.56° C 68% 1020.4 hPa 0 mm - 238 W/m² -

* Rain latest hour (hover to see other rain measurements)
** Current wind speed in m/s (hover to see current wind gust speed)